sensor_id;sensor_type;location;lat;lon;timestamp;P1;durP1;ratioP1;P2;durP2;ratioP2
74100;SDS011;62462;52.530;21.682;2023-01-08T00:02:23;70.18;;;28.27;;
74100;SDS011;62462;52.530;21.682;2023-01-08T00:04:50;73.45;;;29.70;;
74100;SDS011;62462;52.530;21.682;2023-01-08T00:07:16;74.38;;;25.77;;
74100;SDS011;62462;52.530;21.682;2023-01-08T00:09:41;67.78;;;27.52;;
74100;SDS011;62462;52.530;21.682;2023-01-08T00:12:07;73.72;;;27.58;;
74100;SDS011;62462;52.530;21.682;2023-01-08T00:14:33;72.38;;;27.35;;
74100;SDS011;62462;52.530;21.682;2023-01-08T00:16:59;70.43;;;28.02;;
74100;SDS011;62462;52.530;21.682;2023-01-08T00:19:26;63.88;;;27.27;;
74100;SDS011;62462;52.530;21.682;2023-01-08T00:21:53;72.47;;;28.42;;
74100;SDS011;62462;52.530;21.682;2023-01-08T00:24:19;69.07;;;26.45;;
74100;SDS011;62462;52.530;21.682;2023-01-08T00:26:45;72.75;;;27.55;;
74100;SDS011;62462;52.530;21.682;2023-01-08T00:29:10;64.15;;;26.35;;
74100;SDS011;62462;52.530;21.682;2023-01-08T00:31:36;74.38;;;27.05;;
74100;SDS011;62462;52.530;21.682;2023-01-08T00:34:02;68.53;;;27.00;;
74100;SDS011;62462;52.530;21.682;2023-01-08T00:36:28;64.43;;;25.92;;
74100;SDS011;62462;52.530;21.682;2023-01-08T00:38:53;68.95;;;25.80;;
74100;SDS011;62462;52.530;21.682;2023-01-08T00:41:19;67.25;;;27.20;;
74100;SDS011;62462;52.530;21.682;2023-01-08T00:43:45;65.72;;;26.30;;
74100;SDS011;62462;52.530;21.682;2023-01-08T00:46:10;64.38;;;25.55;;
74100;SDS011;62462;52.530;21.682;2023-01-08T00:48:36;60.05;;;25.23;;
74100;SDS011;62462;52.530;21.682;2023-01-08T00:51:03;60.47;;;24.33;;
74100;SDS011;62462;52.530;21.682;2023-01-08T00:53:30;70.53;;;26.38;;
74100;SDS011;62462;52.530;21.682;2023-01-08T00:56:02;69.65;;;28.63;;
74100;SDS011;62462;52.530;21.682;2023-01-08T01:03:25;62.47;;;24.25;;
74100;SDS011;62462;52.530;21.682;2023-01-08T01:06:01;59.78;;;24.02;;
74100;SDS011;62462;52.530;21.682;2023-01-08T01:08:27;64.80;;;25.02;;
74100;SDS011;62462;52.530;21.682;2023-01-08T01:10:53;61.75;;;24.95;;
74100;SDS011;62462;52.530;21.682;2023-01-08T01:13:19;62.72;;;23.88;;
74100;SDS011;62462;52.530;21.682;2023-01-08T01:15:44;63.83;;;25.08;;
74100;SDS011;62462;52.530;21.682;2023-01-08T01:18:10;62.78;;;25.77;;
74100;SDS011;62462;52.530;21.682;2023-01-08T01:20:36;61.13;;;24.85;;
74100;SDS011;62462;52.530;21.682;2023-01-08T01:23:03;62.75;;;24.95;;
74100;SDS011;62462;52.530;21.682;2023-01-08T01:25:28;69.07;;;27.58;;
74100;SDS011;62462;52.530;21.682;2023-01-08T01:27:54;60.17;;;23.40;;
74100;SDS011;62462;52.530;21.682;2023-01-08T01:30:21;58.67;;;24.17;;
74100;SDS011;62462;52.530;21.682;2023-01-08T01:32:47;61.97;;;24.95;;
74100;SDS011;62462;52.530;21.682;2023-01-08T01:35:12;60.22;;;24.38;;
74100;SDS011;62462;52.530;21.682;2023-01-08T01:37:38;60.70;;;26.98;;
74100;SDS011;62462;52.530;21.682;2023-01-08T01:40:04;61.90;;;25.17;;
74100;SDS011;62462;52.530;21.682;2023-01-08T01:42:30;58.67;;;24.25;;
74100;SDS011;62462;52.530;21.682;2023-01-08T01:45:23;62.50;;;24.63;;
74100;SDS011;62462;52.530;21.682;2023-01-08T01:47:58;55.88;;;22.08;;
74100;SDS011;62462;52.530;21.682;2023-01-08T01:50:46;58.55;;;23.30;;
74100;SDS011;62462;52.530;21.682;2023-01-08T01:55:52;60.28;;;24.17;;
74100;SDS011;62462;52.530;21.682;2023-01-08T01:58:23;54.13;;;23.27;;
74100;SDS011;62462;52.530;21.682;2023-01-08T02:00:52;58.95;;;23.83;;
74100;SDS011;62462;52.530;21.682;2023-01-08T02:03:23;60.53;;;23.85;;
74100;SDS011;62462;52.530;21.682;2023-01-08T02:08:25;49.83;;;23.08;;
74100;SDS011;62462;52.530;21.682;2023-01-08T02:11:10;50.58;;;20.83;;
74100;SDS011;62462;52.530;21.682;2023-01-08T02:13:42;54.00;;;22.33;;
74100;SDS011;62462;52.530;21.682;2023-01-08T02:16:17;46.13;;;20.08;;
74100;SDS011;62462;52.530;21.682;2023-01-08T02:18:54;44.35;;;18.65;;
74100;SDS011;62462;52.530;21.682;2023-01-08T02:26:47;45.25;;;19.08;;
74100;SDS011;62462;52.530;21.682;2023-01-08T02:29:17;40.92;;;18.77;;
74100;SDS011;62462;52.530;21.682;2023-01-08T02:31:48;46.03;;;19.08;;
74100;SDS011;62462;52.530;21.682;2023-01-08T02:34:14;43.28;;;17.73;;
74100;SDS011;62462;52.530;21.682;2023-01-08T02:36:47;41.38;;;17.83;;
74100;SDS011;62462;52.530;21.682;2023-01-08T02:39:42;51.00;;;18.05;;
74100;SDS011;62462;52.530;21.682;2023-01-08T02:42:50;45.22;;;17.88;;
74100;SDS011;62462;52.530;21.682;2023-01-08T02:48:05;35.92;;;16.20;;
74100;SDS011;62462;52.530;21.682;2023-01-08T02:50:50;34.67;;;16.52;;
74100;SDS011;62462;52.530;21.682;2023-01-08T02:53:30;41.05;;;16.80;;
74100;SDS011;62462;52.530;21.682;2023-01-08T02:56:06;38.42;;;15.48;;
74100;SDS011;62462;52.530;21.682;2023-01-08T02:58:34;38.03;;;16.63;;
74100;SDS011;62462;52.530;21.682;2023-01-08T03:01:03;41.90;;;16.08;;
74100;SDS011;62462;52.530;21.682;2023-01-08T03:03:35;37.38;;;15.65;;
74100;SDS011;62462;52.530;21.682;2023-01-08T03:06:05;37.70;;;16.77;;
74100;SDS011;62462;52.530;21.682;2023-01-08T03:08:33;37.80;;;16.58;;
74100;SDS011;62462;52.530;21.682;2023-01-08T03:11:04;33.33;;;14.77;;
74100;SDS011;62462;52.530;21.682;2023-01-08T03:16:27;38.83;;;15.68;;
74100;SDS011;62462;52.530;21.682;2023-01-08T03:19:04;36.92;;;14.95;;
74100;SDS011;62462;52.530;21.682;2023-01-08T03:21:31;37.15;;;15.60;;
74100;SDS011;62462;52.530;21.682;2023-01-08T03:23:59;35.53;;;15.55;;
74100;SDS011;62462;52.530;21.682;2023-01-08T03:26:27;32.55;;;13.85;;
74100;SDS011;62462;52.530;21.682;2023-01-08T03:28:55;36.85;;;16.70;;
74100;SDS011;62462;52.530;21.682;2023-01-08T03:31:22;37.08;;;15.00;;
74100;SDS011;62462;52.530;21.682;2023-01-08T03:33:50;34.05;;;15.30;;
74100;SDS011;62462;52.530;21.682;2023-01-08T03:36:19;38.03;;;15.40;;
74100;SDS011;62462;52.530;21.682;2023-01-08T03:41:47;35.45;;;14.90;;
74100;SDS011;62462;52.530;21.682;2023-01-08T03:44:14;33.45;;;14.27;;
74100;SDS011;62462;52.530;21.682;2023-01-08T03:46:43;33.70;;;14.20;;
74100;SDS011;62462;52.530;21.682;2023-01-08T03:49:12;34.17;;;14.90;;
74100;SDS011;62462;52.530;21.682;2023-01-08T03:51:40;33.47;;;13.82;;
74100;SDS011;62462;52.530;21.682;2023-01-08T03:54:08;31.90;;;13.40;;
74100;SDS011;62462;52.530;21.682;2023-01-08T03:56:38;34.38;;;14.75;;
74100;SDS011;62462;52.530;21.682;2023-01-08T03:59:04;32.30;;;13.38;;
74100;SDS011;62462;52.530;21.682;2023-01-08T04:01:30;34.60;;;13.40;;
74100;SDS011;62462;52.530;21.682;2023-01-08T04:03:56;35.15;;;14.27;;
74100;SDS011;62462;52.530;21.682;2023-01-08T04:06:24;35.28;;;13.77;;
74100;SDS011;62462;52.530;21.682;2023-01-08T04:08:50;32.13;;;13.32;;
74100;SDS011;62462;52.530;21.682;2023-01-08T04:11:15;30.25;;;14.27;;
74100;SDS011;62462;52.530;21.682;2023-01-08T04:13:41;32.33;;;13.85;;
74100;SDS011;62462;52.530;21.682;2023-01-08T04:16:07;29.98;;;12.93;;
74100;SDS011;62462;52.530;21.682;2023-01-08T04:18:33;28.92;;;13.88;;
74100;SDS011;62462;52.530;21.682;2023-01-08T04:20:58;30.63;;;12.98;;
74100;SDS011;62462;52.530;21.682;2023-01-08T04:23:24;31.63;;;14.15;;
74100;SDS011;62462;52.530;21.682;2023-01-08T04:25:50;31.20;;;13.75;;
74100;SDS011;62462;52.530;21.682;2023-01-08T04:28:16;28.73;;;12.50;;
74100;SDS011;62462;52.530;21.682;2023-01-08T04:30:43;28.02;;;13.70;;
74100;SDS011;62462;52.530;21.682;2023-01-08T04:33:09;26.27;;;13.27;;
74100;SDS011;62462;52.530;21.682;2023-01-08T04:35:35;28.10;;;11.90;;
74100;SDS011;62462;52.530;21.682;2023-01-08T04:38:00;27.42;;;12.80;;
74100;SDS011;62462;52.530;21.682;2023-01-08T04:40:26;29.38;;;11.95;;
74100;SDS011;62462;52.530;21.682;2023-01-08T04:42:52;29.98;;;13.45;;
74100;SDS011;62462;52.530;21.682;2023-01-08T04:45:18;31.05;;;13.35;;
74100;SDS011;62462;52.530;21.682;2023-01-08T04:47:43;29.92;;;12.77;;
74100;SDS011;62462;52.530;21.682;2023-01-08T04:50:09;32.00;;;13.77;;
74100;SDS011;62462;52.530;21.682;2023-01-08T04:52:36;28.25;;;11.80;;
74100;SDS011;62462;52.530;21.682;2023-01-08T04:55:02;27.05;;;12.50;;
74100;SDS011;62462;52.530;21.682;2023-01-08T04:57:28;30.75;;;11.85;;
74100;SDS011;62462;52.530;21.682;2023-01-08T04:59:53;24.90;;;11.23;;
74100;SDS011;62462;52.530;21.682;2023-01-08T05:02:19;34.33;;;12.40;;
74100;SDS011;62462;52.530;21.682;2023-01-08T05:04:46;27.65;;;11.70;;
74100;SDS011;62462;52.530;21.682;2023-01-08T05:07:12;27.20;;;11.70;;
74100;SDS011;62462;52.530;21.682;2023-01-08T05:09:44;22.77;;;11.40;;
74100;SDS011;62462;52.530;21.682;2023-01-08T05:12:09;27.48;;;12.13;;
74100;SDS011;62462;52.530;21.682;2023-01-08T05:14:37;25.73;;;10.77;;
74100;SDS011;62462;52.530;21.682;2023-01-08T05:17:03;28.13;;;11.82;;
74100;SDS011;62462;52.530;21.682;2023-01-08T05:19:34;25.90;;;11.45;;
74100;SDS011;62462;52.530;21.682;2023-01-08T05:22:00;26.77;;;11.38;;
74100;SDS011;62462;52.530;21.682;2023-01-08T05:24:26;25.70;;;11.60;;
74100;SDS011;62462;52.530;21.682;2023-01-08T05:26:51;29.05;;;11.10;;
74100;SDS011;62462;52.530;21.682;2023-01-08T05:29:17;25.77;;;11.27;;
74100;SDS011;62462;52.530;21.682;2023-01-08T05:31:43;26.45;;;11.13;;
74100;SDS011;62462;52.530;21.682;2023-01-08T05:34:10;25.77;;;11.50;;
74100;SDS011;62462;52.530;21.682;2023-01-08T05:36:36;27.50;;;13.50;;
74100;SDS011;62462;52.530;21.682;2023-01-08T05:39:02;26.73;;;12.10;;
74100;SDS011;62462;52.530;21.682;2023-01-08T05:41:28;24.27;;;11.60;;
74100;SDS011;62462;52.530;21.682;2023-01-08T05:43:54;24.58;;;12.23;;
74100;SDS011;62462;52.530;21.682;2023-01-08T05:46:19;28.40;;;13.30;;
74100;SDS011;62462;52.530;21.682;2023-01-08T05:48:45;27.67;;;12.18;;
74100;SDS011;62462;52.530;21.682;2023-01-08T05:51:11;28.30;;;11.20;;
74100;SDS011;62462;52.530;21.682;2023-01-08T05:53:36;27.92;;;10.70;;
74100;SDS011;62462;52.530;21.682;2023-01-08T05:56:04;29.33;;;12.75;;
74100;SDS011;62462;52.530;21.682;2023-01-08T05:58:31;27.45;;;13.30;;
74100;SDS011;62462;52.530;21.682;2023-01-08T06:01:00;28.83;;;12.98;;
74100;SDS011;62462;52.530;21.682;2023-01-08T06:03:28;26.88;;;13.35;;
74100;SDS011;62462;52.530;21.682;2023-01-08T06:05:57;31.27;;;12.60;;
74100;SDS011;62462;52.530;21.682;2023-01-08T06:08:24;30.33;;;13.20;;
74100;SDS011;62462;52.530;21.682;2023-01-08T06:10:50;24.45;;;11.65;;
74100;SDS011;62462;52.530;21.682;2023-01-08T06:13:16;28.33;;;11.75;;
74100;SDS011;62462;52.530;21.682;2023-01-08T06:15:41;29.40;;;12.68;;
74100;SDS011;62462;52.530;21.682;2023-01-08T06:18:09;27.50;;;12.80;;
74100;SDS011;62462;52.530;21.682;2023-01-08T06:20:35;30.63;;;13.80;;
74100;SDS011;62462;52.530;21.682;2023-01-08T06:23:02;25.73;;;11.93;;
74100;SDS011;62462;52.530;21.682;2023-01-08T06:25:27;29.65;;;13.27;;
74100;SDS011;62462;52.530;21.682;2023-01-08T06:27:55;25.88;;;11.57;;
74100;SDS011;62462;52.530;21.682;2023-01-08T06:30:20;27.30;;;11.10;;
74100;SDS011;62462;52.530;21.682;2023-01-08T06:32:46;26.73;;;11.40;;
74100;SDS011;62462;52.530;21.682;2023-01-08T06:35:12;30.05;;;11.75;;
74100;SDS011;62462;52.530;21.682;2023-01-08T06:37:37;22.65;;;11.65;;
74100;SDS011;62462;52.530;21.682;2023-01-08T06:40:03;28.83;;;12.05;;
74100;SDS011;62462;52.530;21.682;2023-01-08T06:42:30;26.95;;;12.60;;
74100;SDS011;62462;52.530;21.682;2023-01-08T06:44:56;26.55;;;12.63;;
74100;SDS011;62462;52.530;21.682;2023-01-08T06:47:21;25.60;;;11.38;;
74100;SDS011;62462;52.530;21.682;2023-01-08T06:49:47;28.88;;;11.25;;
74100;SDS011;62462;52.530;21.682;2023-01-08T06:52:13;29.10;;;12.50;;
74100;SDS011;62462;52.530;21.682;2023-01-08T06:54:38;26.85;;;11.27;;
74100;SDS011;62462;52.530;21.682;2023-01-08T06:57:05;26.33;;;11.02;;
74100;SDS011;62462;52.530;21.682;2023-01-08T06:59:30;24.70;;;11.38;;
74100;SDS011;62462;52.530;21.682;2023-01-08T07:01:56;27.17;;;11.80;;
74100;SDS011;62462;52.530;21.682;2023-01-08T07:04:23;27.75;;;12.10;;
74100;SDS011;62462;52.530;21.682;2023-01-08T07:06:48;26.50;;;12.23;;
74100;SDS011;62462;52.530;21.682;2023-01-08T07:09:14;27.98;;;12.48;;
74100;SDS011;62462;52.530;21.682;2023-01-08T07:11:40;26.25;;;12.50;;
74100;SDS011;62462;52.530;21.682;2023-01-08T07:14:07;28.77;;;13.18;;
74100;SDS011;62462;52.530;21.682;2023-01-08T07:16:33;29.23;;;12.80;;
74100;SDS011;62462;52.530;21.682;2023-01-08T07:18:59;27.98;;;12.98;;
74100;SDS011;62462;52.530;21.682;2023-01-08T07:21:25;33.92;;;13.30;;
74100;SDS011;62462;52.530;21.682;2023-01-08T07:23:51;30.90;;;13.35;;
74100;SDS011;62462;52.530;21.682;2023-01-08T07:26:17;31.08;;;13.30;;
74100;SDS011;62462;52.530;21.682;2023-01-08T07:28:43;27.38;;;12.50;;
74100;SDS011;62462;52.530;21.682;2023-01-08T07:31:09;30.15;;;13.15;;
74100;SDS011;62462;52.530;21.682;2023-01-08T07:33:34;27.73;;;11.55;;
74100;SDS011;62462;52.530;21.682;2023-01-08T07:36:00;27.75;;;12.23;;
74100;SDS011;62462;52.530;21.682;2023-01-08T07:38:26;33.00;;;14.10;;
74100;SDS011;62462;52.530;21.682;2023-01-08T07:40:52;28.55;;;12.05;;
74100;SDS011;62462;52.530;21.682;2023-01-08T07:43:18;27.67;;;12.75;;
74100;SDS011;62462;52.530;21.682;2023-01-08T07:45:44;29.17;;;13.07;;
74100;SDS011;62462;52.530;21.682;2023-01-08T07:48:10;25.27;;;11.85;;
74100;SDS011;62462;52.530;21.682;2023-01-08T07:50:39;50.03;;;20.05;;
74100;SDS011;62462;52.530;21.682;2023-01-08T07:53:09;39.95;;;15.55;;
74100;SDS011;62462;52.530;21.682;2023-01-08T07:55:36;32.83;;;13.15;;
74100;SDS011;62462;52.530;21.682;2023-01-08T07:58:06;38.15;;;13.05;;
74100;SDS011;62462;52.530;21.682;2023-01-08T08:00:37;35.38;;;14.05;;
74100;SDS011;62462;52.530;21.682;2023-01-08T08:03:04;35.28;;;14.75;;
74100;SDS011;62462;52.530;21.682;2023-01-08T08:05:31;36.95;;;13.65;;
74100;SDS011;62462;52.530;21.682;2023-01-08T08:07:57;32.40;;;13.40;;
74100;SDS011;62462;52.530;21.682;2023-01-08T08:10:23;30.67;;;11.95;;
74100;SDS011;62462;52.530;21.682;2023-01-08T08:12:49;34.53;;;13.50;;
74100;SDS011;62462;52.530;21.682;2023-01-08T08:15:15;31.48;;;13.57;;
74100;SDS011;62462;52.530;21.682;2023-01-08T08:17:47;34.65;;;14.80;;
74100;SDS011;62462;52.530;21.682;2023-01-08T08:20:14;28.70;;;11.98;;
74100;SDS011;62462;52.530;21.682;2023-01-08T08:22:40;39.83;;;14.90;;
74100;SDS011;62462;52.530;21.682;2023-01-08T08:27:41;36.70;;;14.13;;
74100;SDS011;62462;52.530;21.682;2023-01-08T08:30:14;34.75;;;15.00;;
74100;SDS011;62462;52.530;21.682;2023-01-08T08:32:39;35.92;;;13.07;;
74100;SDS011;62462;52.530;21.682;2023-01-08T08:35:05;40.75;;;14.85;;
74100;SDS011;62462;52.530;21.682;2023-01-08T08:37:31;35.10;;;15.43;;
74100;SDS011;62462;52.530;21.682;2023-01-08T08:39:58;29.13;;;12.80;;
74100;SDS011;62462;52.530;21.682;2023-01-08T08:42:24;26.98;;;12.48;;
74100;SDS011;62462;52.530;21.682;2023-01-08T08:44:51;29.80;;;12.25;;
74100;SDS011;62462;52.530;21.682;2023-01-08T08:47:17;30.38;;;12.70;;
74100;SDS011;62462;52.530;21.682;2023-01-08T08:49:43;27.90;;;12.10;;
74100;SDS011;62462;52.530;21.682;2023-01-08T08:52:09;26.58;;;11.27;;
74100;SDS011;62462;52.530;21.682;2023-01-08T08:54:34;20.88;;;8.30;;
74100;SDS011;62462;52.530;21.682;2023-01-08T08:57:02;22.63;;;9.50;;
74100;SDS011;62462;52.530;21.682;2023-01-08T08:59:28;19.13;;;8.82;;
74100;SDS011;62462;52.530;21.682;2023-01-08T09:02:01;17.25;;;7.40;;
74100;SDS011;62462;52.530;21.682;2023-01-08T09:04:32;23.20;;;9.15;;
74100;SDS011;62462;52.530;21.682;2023-01-08T09:06:58;25.45;;;10.55;;
74100;SDS011;62462;52.530;21.682;2023-01-08T09:09:25;24.48;;;9.55;;
74100;SDS011;62462;52.530;21.682;2023-01-08T09:11:51;21.60;;;9.02;;
74100;SDS011;62462;52.530;21.682;2023-01-08T09:14:18;21.08;;;9.48;;
74100;SDS011;62462;52.530;21.682;2023-01-08T09:16:44;17.48;;;8.15;;
74100;SDS011;62462;52.530;21.682;2023-01-08T09:19:10;18.33;;;8.45;;
74100;SDS011;62462;52.530;21.682;2023-01-08T09:21:36;21.80;;;9.90;;
74100;SDS011;62462;52.530;21.682;2023-01-08T09:24:02;21.02;;;9.13;;
74100;SDS011;62462;52.530;21.682;2023-01-08T09:26:28;21.23;;;8.45;;
74100;SDS011;62462;52.530;21.682;2023-01-08T09:28:54;16.38;;;8.15;;
74100;SDS011;62462;52.530;21.682;2023-01-08T09:31:21;19.08;;;9.57;;
74100;SDS011;62462;52.530;21.682;2023-01-08T09:33:47;19.27;;;9.05;;
74100;SDS011;62462;52.530;21.682;2023-01-08T09:36:15;19.20;;;8.85;;
74100;SDS011;62462;52.530;21.682;2023-01-08T09:38:41;17.52;;;9.02;;
74100;SDS011;62462;52.530;21.682;2023-01-08T09:43:57;24.02;;;9.07;;
74100;SDS011;62462;52.530;21.682;2023-01-08T09:46:26;15.05;;;7.65;;
74100;SDS011;62462;52.530;21.682;2023-01-08T09:48:53;16.90;;;8.63;;
74100;SDS011;62462;52.530;21.682;2023-01-08T09:51:22;21.75;;;9.18;;
74100;SDS011;62462;52.530;21.682;2023-01-08T09:53:56;19.70;;;9.55;;
74100;SDS011;62462;52.530;21.682;2023-01-08T09:56:22;41.42;;;17.30;;
74100;SDS011;62462;52.530;21.682;2023-01-08T09:58:50;30.83;;;13.55;;
74100;SDS011;62462;52.530;21.682;2023-01-08T10:01:24;19.80;;;9.85;;
74100;SDS011;62462;52.530;21.682;2023-01-08T10:03:56;15.35;;;8.02;;
74100;SDS011;62462;52.530;21.682;2023-01-08T10:06:28;16.85;;;7.82;;
74100;SDS011;62462;52.530;21.682;2023-01-08T10:08:55;22.65;;;10.02;;
74100;SDS011;62462;52.530;21.682;2023-01-08T10:11:22;16.25;;;7.63;;
74100;SDS011;62462;52.530;21.682;2023-01-08T10:13:54;18.02;;;9.23;;
74100;SDS011;62462;52.530;21.682;2023-01-08T10:16:28;17.70;;;8.13;;
74100;SDS011;62462;52.530;21.682;2023-01-08T10:19:01;14.30;;;7.80;;
74100;SDS011;62462;52.530;21.682;2023-01-08T10:21:31;26.38;;;11.48;;
74100;SDS011;62462;52.530;21.682;2023-01-08T10:24:04;18.00;;;8.98;;
74100;SDS011;62462;52.530;21.682;2023-01-08T10:26:32;15.60;;;8.90;;
74100;SDS011;62462;52.530;21.682;2023-01-08T10:31:43;15.40;;;8.40;;
74100;SDS011;62462;52.530;21.682;2023-01-08T10:34:10;18.63;;;8.70;;
74100;SDS011;62462;52.530;21.682;2023-01-08T10:36:42;15.27;;;7.97;;
74100;SDS011;62462;52.530;21.682;2023-01-08T10:39:12;21.83;;;10.82;;
74100;SDS011;62462;52.530;21.682;2023-01-08T10:41:54;25.27;;;13.00;;
74100;SDS011;62462;52.530;21.682;2023-01-08T10:44:26;20.20;;;10.40;;
74100;SDS011;62462;52.530;21.682;2023-01-08T10:46:54;15.70;;;8.73;;
74100;SDS011;62462;52.530;21.682;2023-01-08T10:52:01;21.67;;;10.95;;
74100;SDS011;62462;52.530;21.682;2023-01-08T10:54:39;31.65;;;16.73;;
74100;SDS011;62462;52.530;21.682;2023-01-08T10:59:51;27.70;;;16.08;;
74100;SDS011;62462;52.530;21.682;2023-01-08T11:02:23;58.15;;;27.90;;
74100;SDS011;62462;52.530;21.682;2023-01-08T11:04:53;60.05;;;34.33;;
74100;SDS011;62462;52.530;21.682;2023-01-08T11:07:19;55.08;;;26.48;;
74100;SDS011;62462;52.530;21.682;2023-01-08T11:09:48;41.00;;;22.73;;
74100;SDS011;62462;52.530;21.682;2023-01-08T11:12:30;27.05;;;14.25;;
74100;SDS011;62462;52.530;21.682;2023-01-08T11:14:59;20.95;;;10.10;;
74100;SDS011;62462;52.530;21.682;2023-01-08T11:17:26;21.42;;;11.23;;
74100;SDS011;62462;52.530;21.682;2023-01-08T11:19:52;21.33;;;11.27;;
74100;SDS011;62462;52.530;21.682;2023-01-08T11:22:19;46.42;;;20.45;;
74100;SDS011;62462;52.530;21.682;2023-01-08T11:24:51;38.38;;;18.27;;
74100;SDS011;62462;52.530;21.682;2023-01-08T11:27:25;26.30;;;12.02;;
74100;SDS011;62462;52.530;21.682;2023-01-08T11:35:25;32.40;;;14.38;;
74100;SDS011;62462;52.530;21.682;2023-01-08T11:37:59;40.75;;;18.67;;
74100;SDS011;62462;52.530;21.682;2023-01-08T11:45:57;28.70;;;14.00;;
74100;SDS011;62462;52.530;21.682;2023-01-08T12:02:57;36.30;;;15.40;;
74100;SDS011;62462;52.530;21.682;2023-01-08T12:15:51;28.45;;;13.30;;
74100;SDS011;62462;52.530;21.682;2023-01-08T12:24:54;25.15;;;12.38;;
74100;SDS011;62462;52.530;21.682;2023-01-08T12:28:12;27.25;;;12.75;;
74100;SDS011;62462;52.530;21.682;2023-01-08T12:30:21;26.88;;;13.43;;
74100;SDS011;62462;52.530;21.682;2023-01-08T12:32:54;24.92;;;12.52;;
74100;SDS011;62462;52.530;21.682;2023-01-08T12:35:26;26.73;;;13.00;;
74100;SDS011;62462;52.530;21.682;2023-01-08T12:38:05;69.50;;;28.42;;
74100;SDS011;62462;52.530;21.682;2023-01-08T12:40:47;38.25;;;17.52;;
74100;SDS011;62462;52.530;21.682;2023-01-08T12:45:54;140.48;;;47.70;;
74100;SDS011;62462;52.530;21.682;2023-01-08T12:48:24;103.15;;;36.85;;
74100;SDS011;62462;52.530;21.682;2023-01-08T13:04:13;285.63;;;96.35;;
74100;SDS011;62462;52.530;21.682;2023-01-08T13:06:49;104.70;;;40.85;;
74100;SDS011;62462;52.530;21.682;2023-01-08T13:09:24;73.97;;;30.55;;
74100;SDS011;62462;52.530;21.682;2023-01-08T13:11:52;47.25;;;20.60;;
74100;SDS011;62462;52.530;21.682;2023-01-08T13:14:19;54.45;;;22.70;;
74100;SDS011;62462;52.530;21.682;2023-01-08T13:16:47;108.95;;;38.22;;
74100;SDS011;62462;52.530;21.682;2023-01-08T13:19:42;72.85;;;24.48;;
74100;SDS011;62462;52.530;21.682;2023-01-08T13:22:35;65.80;;;30.00;;
74100;SDS011;62462;52.530;21.682;2023-01-08T13:27:43;50.97;;;22.67;;
74100;SDS011;62462;52.530;21.682;2023-01-08T13:32:54;53.67;;;24.08;;
74100;SDS011;62462;52.530;21.682;2023-01-08T13:35:21;52.25;;;23.90;;
74100;SDS011;62462;52.530;21.682;2023-01-08T13:38:11;45.83;;;22.48;;
74100;SDS011;62462;52.530;21.682;2023-01-08T13:43:14;58.05;;;26.98;;
74100;SDS011;62462;52.530;21.682;2023-01-08T13:45:45;47.65;;;23.48;;
74100;SDS011;62462;52.530;21.682;2023-01-08T13:48:24;84.72;;;38.42;;
74100;SDS011;62462;52.530;21.682;2023-01-08T13:50:56;40.45;;;18.65;;
74100;SDS011;62462;52.530;21.682;2023-01-08T13:53:22;39.50;;;18.58;;
74100;SDS011;62462;52.530;21.682;2023-01-08T13:55:58;35.38;;;17.20;;
74100;SDS011;62462;52.530;21.682;2023-01-08T13:58:32;43.80;;;21.38;;
74100;SDS011;62462;52.530;21.682;2023-01-08T14:01:01;39.13;;;19.65;;
74100;SDS011;62462;52.530;21.682;2023-01-08T14:03:32;35.05;;;18.38;;
74100;SDS011;62462;52.530;21.682;2023-01-08T14:11:17;36.85;;;17.63;;
74100;SDS011;62462;52.530;21.682;2023-01-08T14:13:46;42.83;;;21.20;;
74100;SDS011;62462;52.530;21.682;2023-01-08T14:16:13;45.92;;;20.90;;
74100;SDS011;62462;52.530;21.682;2023-01-08T14:18:44;53.38;;;23.00;;
74100;SDS011;62462;52.530;21.682;2023-01-08T14:21:11;40.17;;;20.58;;
74100;SDS011;62462;52.530;21.682;2023-01-08T14:23:39;34.22;;;18.50;;
74100;SDS011;62462;52.530;21.682;2023-01-08T14:26:07;38.25;;;20.58;;
74100;SDS011;62462;52.530;21.682;2023-01-08T14:28:51;41.80;;;20.77;;
74100;SDS011;62462;52.530;21.682;2023-01-08T14:31:21;48.15;;;24.75;;
74100;SDS011;62462;52.530;21.682;2023-01-08T14:33:55;48.63;;;22.05;;
74100;SDS011;62462;52.530;21.682;2023-01-08T14:36:23;40.05;;;19.02;;
74100;SDS011;62462;52.530;21.682;2023-01-08T14:38:49;44.38;;;22.45;;
74100;SDS011;62462;52.530;21.682;2023-01-08T14:43:45;50.45;;;24.83;;
74100;SDS011;62462;52.530;21.682;2023-01-08T14:46:26;44.85;;;22.65;;
74100;SDS011;62462;52.530;21.682;2023-01-08T14:48:53;32.70;;;16.77;;
74100;SDS011;62462;52.530;21.682;2023-01-08T14:51:22;40.75;;;19.83;;
74100;SDS011;62462;52.530;21.682;2023-01-08T14:53:51;42.85;;;23.02;;
74100;SDS011;62462;52.530;21.682;2023-01-08T14:58:52;46.80;;;22.45;;
74100;SDS011;62462;52.530;21.682;2023-01-08T15:01:23;43.28;;;22.05;;
74100;SDS011;62462;52.530;21.682;2023-01-08T15:04:04;36.95;;;19.35;;
74100;SDS011;62462;52.530;21.682;2023-01-08T15:06:38;32.92;;;17.13;;
74100;SDS011;62462;52.530;21.682;2023-01-08T15:09:18;43.38;;;22.77;;
74100;SDS011;62462;52.530;21.682;2023-01-08T15:11:52;47.45;;;24.65;;
74100;SDS011;62462;52.530;21.682;2023-01-08T15:14:21;48.03;;;24.88;;
74100;SDS011;62462;52.530;21.682;2023-01-08T15:16:49;44.13;;;20.55;;
74100;SDS011;62462;52.530;21.682;2023-01-08T15:19:22;44.55;;;22.75;;
74100;SDS011;62462;52.530;21.682;2023-01-08T15:21:56;43.00;;;22.25;;
74100;SDS011;62462;52.530;21.682;2023-01-08T15:24:24;43.92;;;21.75;;
74100;SDS011;62462;52.530;21.682;2023-01-08T15:29:30;54.95;;;25.20;;
74100;SDS011;62462;52.530;21.682;2023-01-08T15:32:10;103.70;;;39.67;;
74100;SDS011;62462;52.530;21.682;2023-01-08T15:34:47;70.18;;;29.20;;
74100;SDS011;62462;52.530;21.682;2023-01-08T15:37:13;86.90;;;36.67;;
74100;SDS011;62462;52.530;21.682;2023-01-08T15:39:40;67.55;;;29.92;;
74100;SDS011;62462;52.530;21.682;2023-01-08T15:45:05;67.60;;;33.60;;
74100;SDS011;62462;52.530;21.682;2023-01-08T15:47:36;45.42;;;22.00;;
74100;SDS011;62462;52.530;21.682;2023-01-08T15:50:02;44.05;;;19.60;;
74100;SDS011;62462;52.530;21.682;2023-01-08T15:52:28;36.13;;;18.10;;
74100;SDS011;62462;52.530;21.682;2023-01-08T15:54:56;40.50;;;20.08;;
74100;SDS011;62462;52.530;21.682;2023-01-08T15:57:22;70.55;;;30.30;;
74100;SDS011;62462;52.530;21.682;2023-01-08T15:59:48;43.08;;;20.88;;
74100;SDS011;62462;52.530;21.682;2023-01-08T16:02:14;47.28;;;19.88;;
74100;SDS011;62462;52.530;21.682;2023-01-08T16:04:40;54.08;;;22.25;;
74100;SDS011;62462;52.530;21.682;2023-01-08T16:07:07;50.08;;;21.92;;
74100;SDS011;62462;52.530;21.682;2023-01-08T16:09:32;45.22;;;18.42;;
74100;SDS011;62462;52.530;21.682;2023-01-08T16:11:58;50.78;;;19.23;;
74100;SDS011;62462;52.530;21.682;2023-01-08T16:14:24;38.05;;;18.30;;
74100;SDS011;62462;52.530;21.682;2023-01-08T16:16:50;67.75;;;27.15;;
74100;SDS011;62462;52.530;21.682;2023-01-08T16:19:15;46.05;;;22.10;;
74100;SDS011;62462;52.530;21.682;2023-01-08T16:21:41;37.90;;;18.90;;